sensor_id;sensor_type;location;lat;lon;timestamp;P1;durP1;ratioP1;P2;durP2;ratioP2
11522;SDS011;70090;43.208;27.904;2023-06-14T00:01:31;4.23;;;3.00;;
11522;SDS011;70090;43.208;27.904;2023-06-14T00:03:59;4.50;;;3.60;;
11522;SDS011;70090;43.208;27.904;2023-06-14T00:06:28;3.87;;;3.30;;
11522;SDS011;70090;43.208;27.904;2023-06-14T00:08:55;6.80;;;3.50;;
11522;SDS011;70090;43.208;27.904;2023-06-14T00:11:22;3.70;;;3.30;;
11522;SDS011;70090;43.208;27.904;2023-06-14T00:13:49;3.60;;;3.30;;
11522;SDS011;70090;43.208;27.904;2023-06-14T00:16:16;3.67;;;3.33;;
11522;SDS011;70090;43.208;27.904;2023-06-14T00:18:45;3.80;;;3.20;;
11522;SDS011;70090;43.208;27.904;2023-06-14T00:21:12;4.80;;;3.30;;
11522;SDS011;70090;43.208;27.904;2023-06-14T00:23:39;4.03;;;3.60;;
11522;SDS011;70090;43.208;27.904;2023-06-14T00:26:06;3.67;;;3.27;;
11522;SDS011;70090;43.208;27.904;2023-06-14T00:28:33;4.37;;;3.20;;
11522;SDS011;70090;43.208;27.904;2023-06-14T00:31:00;5.23;;;3.63;;
11522;SDS011;70090;43.208;27.904;2023-06-14T00:33:27;5.33;;;3.93;;
11522;SDS011;70090;43.208;27.904;2023-06-14T00:35:55;5.60;;;3.43;;
11522;SDS011;70090;43.208;27.904;2023-06-14T00:38:22;3.80;;;3.47;;
11522;SDS011;70090;43.208;27.904;2023-06-14T00:40:48;5.73;;;3.40;;
11522;SDS011;70090;43.208;27.904;2023-06-14T00:43:15;4.67;;;3.57;;
11522;SDS011;70090;43.208;27.904;2023-06-14T00:45:42;4.80;;;3.50;;
11522;SDS011;70090;43.208;27.904;2023-06-14T00:48:09;6.73;;;4.07;;
11522;SDS011;70090;43.208;27.904;2023-06-14T00:50:37;3.93;;;3.57;;
11522;SDS011;70090;43.208;27.904;2023-06-14T00:53:07;4.33;;;3.73;;
11522;SDS011;70090;43.208;27.904;2023-06-14T00:55:34;6.33;;;4.10;;
11522;SDS011;70090;43.208;27.904;2023-06-14T00:58:01;4.30;;;3.80;;
11522;SDS011;70090;43.208;27.904;2023-06-14T01:00:28;7.50;;;5.40;;
11522;SDS011;70090;43.208;27.904;2023-06-14T01:02:55;12.87;;;10.53;;
11522;SDS011;70090;43.208;27.904;2023-06-14T01:05:22;9.27;;;8.23;;
11522;SDS011;70090;43.208;27.904;2023-06-14T01:07:53;12.70;;;9.10;;
11522;SDS011;70090;43.208;27.904;2023-06-14T01:10:35;13.73;;;9.33;;
11522;SDS011;70090;43.208;27.904;2023-06-14T01:13:10;13.47;;;9.93;;
11522;SDS011;70090;43.208;27.904;2023-06-14T01:15:43;9.37;;;7.57;;
11522;SDS011;70090;43.208;27.904;2023-06-14T01:18:10;9.80;;;8.10;;
11522;SDS011;70090;43.208;27.904;2023-06-14T01:20:42;11.20;;;7.77;;
11522;SDS011;70090;43.208;27.904;2023-06-14T01:23:15;10.07;;;6.67;;
11522;SDS011;70090;43.208;27.904;2023-06-14T01:25:43;7.10;;;6.17;;
11522;SDS011;70090;43.208;27.904;2023-06-14T01:28:10;8.07;;;5.87;;
11522;SDS011;70090;43.208;27.904;2023-06-14T01:30:38;7.67;;;5.40;;
11522;SDS011;70090;43.208;27.904;2023-06-14T01:33:10;9.83;;;5.60;;
11522;SDS011;70090;43.208;27.904;2023-06-14T01:35:38;6.43;;;5.33;;
11522;SDS011;70090;43.208;27.904;2023-06-14T01:38:06;7.53;;;5.77;;
11522;SDS011;70090;43.208;27.904;2023-06-14T01:40:35;5.20;;;4.50;;
11522;SDS011;70090;43.208;27.904;2023-06-14T01:43:02;6.67;;;4.70;;
11522;SDS011;70090;43.208;27.904;2023-06-14T01:45:30;6.23;;;5.03;;
11522;SDS011;70090;43.208;27.904;2023-06-14T01:47:59;5.40;;;4.70;;
11522;SDS011;70090;43.208;27.904;2023-06-14T01:50:27;5.93;;;4.57;;
11522;SDS011;70090;43.208;27.904;2023-06-14T01:52:54;5.43;;;4.70;;
11522;SDS011;70090;43.208;27.904;2023-06-14T01:55:21;4.90;;;4.30;;
11522;SDS011;70090;43.208;27.904;2023-06-14T01:57:51;7.17;;;5.93;;
11522;SDS011;70090;43.208;27.904;2023-06-14T02:00:18;7.30;;;6.43;;
11522;SDS011;70090;43.208;27.904;2023-06-14T02:02:45;11.00;;;7.50;;
11522;SDS011;70090;43.208;27.904;2023-06-14T02:05:12;10.60;;;8.03;;
11522;SDS011;70090;43.208;27.904;2023-06-14T02:07:40;10.13;;;7.63;;
11522;SDS011;70090;43.208;27.904;2023-06-14T02:10:07;11.17;;;8.60;;
11522;SDS011;70090;43.208;27.904;2023-06-14T02:12:34;9.37;;;7.77;;
11522;SDS011;70090;43.208;27.904;2023-06-14T02:15:03;10.73;;;6.80;;
11522;SDS011;70090;43.208;27.904;2023-06-14T02:17:31;9.93;;;7.20;;
11522;SDS011;70090;43.208;27.904;2023-06-14T02:19:58;7.77;;;6.63;;
11522;SDS011;70090;43.208;27.904;2023-06-14T02:22:25;8.37;;;6.90;;
11522;SDS011;70090;43.208;27.904;2023-06-14T02:24:51;7.37;;;6.67;;
11522;SDS011;70090;43.208;27.904;2023-06-14T02:27:18;7.60;;;6.77;;
11522;SDS011;70090;43.208;27.904;2023-06-14T02:29:45;8.80;;;7.77;;
11522;SDS011;70090;43.208;27.904;2023-06-14T02:32:13;10.43;;;8.87;;
11522;SDS011;70090;43.208;27.904;2023-06-14T02:34:40;12.53;;;8.60;;
11522;SDS011;70090;43.208;27.904;2023-06-14T02:37:07;10.53;;;9.43;;
11522;SDS011;70090;43.208;27.904;2023-06-14T02:39:34;7.60;;;6.90;;
11522;SDS011;70090;43.208;27.904;2023-06-14T02:42:01;15.00;;;8.40;;
11522;SDS011;70090;43.208;27.904;2023-06-14T02:44:28;13.50;;;8.30;;
11522;SDS011;70090;43.208;27.904;2023-06-14T02:46:55;11.83;;;7.77;;
11522;SDS011;70090;43.208;27.904;2023-06-14T02:49:25;7.53;;;6.67;;
11522;SDS011;70090;43.208;27.904;2023-06-14T02:51:52;9.03;;;6.30;;
11522;SDS011;70090;43.208;27.904;2023-06-14T02:57:04;8.03;;;5.77;;
11522;SDS011;70090;43.208;27.904;2023-06-14T02:59:32;9.50;;;6.23;;
11522;SDS011;70090;43.208;27.904;2023-06-14T03:01:58;8.97;;;6.53;;
11522;SDS011;70090;43.208;27.904;2023-06-14T03:04:27;10.40;;;6.90;;
11522;SDS011;70090;43.208;27.904;2023-06-14T03:06:54;9.27;;;6.53;;
11522;SDS011;70090;43.208;27.904;2023-06-14T03:09:21;7.07;;;5.73;;
11522;SDS011;70090;43.208;27.904;2023-06-14T03:11:48;7.33;;;6.57;;
11522;SDS011;70090;43.208;27.904;2023-06-14T03:14:15;7.53;;;6.70;;
11522;SDS011;70090;43.208;27.904;2023-06-14T03:16:43;12.20;;;7.50;;
11522;SDS011;70090;43.208;27.904;2023-06-14T03:19:10;12.90;;;11.20;;
11522;SDS011;70090;43.208;27.904;2023-06-14T03:21:38;15.60;;;10.30;;
11522;SDS011;70090;43.208;27.904;2023-06-14T03:24:08;8.10;;;6.80;;
11522;SDS011;70090;43.208;27.904;2023-06-14T03:26:35;8.73;;;7.40;;
11522;SDS011;70090;43.208;27.904;2023-06-14T03:29:03;7.60;;;6.80;;
11522;SDS011;70090;43.208;27.904;2023-06-14T03:31:29;8.27;;;6.77;;
11522;SDS011;70090;43.208;27.904;2023-06-14T03:33:57;7.83;;;6.40;;
11522;SDS011;70090;43.208;27.904;2023-06-14T03:36:25;8.30;;;7.17;;
11522;SDS011;70090;43.208;27.904;2023-06-14T03:38:54;8.23;;;6.90;;
11522;SDS011;70090;43.208;27.904;2023-06-14T03:41:21;9.27;;;7.10;;
11522;SDS011;70090;43.208;27.904;2023-06-14T03:43:48;11.33;;;8.23;;
11522;SDS011;70090;43.208;27.904;2023-06-14T03:46:15;9.97;;;8.60;;
11522;SDS011;70090;43.208;27.904;2023-06-14T03:48:41;10.77;;;8.93;;
11522;SDS011;70090;43.208;27.904;2023-06-14T03:51:08;11.17;;;9.40;;
11522;SDS011;70090;43.208;27.904;2023-06-14T03:53:35;13.73;;;9.20;;
11522;SDS011;70090;43.208;27.904;2023-06-14T03:56:04;12.73;;;9.60;;
11522;SDS011;70090;43.208;27.904;2023-06-14T03:58:32;10.53;;;9.47;;
11522;SDS011;70090;43.208;27.904;2023-06-14T04:00:59;9.43;;;8.53;;
11522;SDS011;70090;43.208;27.904;2023-06-14T04:03:25;10.67;;;8.70;;
11522;SDS011;70090;43.208;27.904;2023-06-14T04:05:54;12.70;;;9.30;;
11522;SDS011;70090;43.208;27.904;2023-06-14T04:08:21;12.80;;;11.50;;
11522;SDS011;70090;43.208;27.904;2023-06-14T04:10:49;17.13;;;13.70;;
11522;SDS011;70090;43.208;27.904;2023-06-14T04:13:18;18.13;;;15.20;;
11522;SDS011;70090;43.208;27.904;2023-06-14T04:15:44;18.67;;;16.17;;
11522;SDS011;70090;43.208;27.904;2023-06-14T04:18:12;17.80;;;14.80;;
11522;SDS011;70090;43.208;27.904;2023-06-14T04:20:38;21.47;;;16.37;;
11522;SDS011;70090;43.208;27.904;2023-06-14T04:23:11;24.93;;;17.70;;
11522;SDS011;70090;43.208;27.904;2023-06-14T04:25:39;27.00;;;17.87;;
11522;SDS011;70090;43.208;27.904;2023-06-14T04:28:10;22.17;;;16.97;;
11522;SDS011;70090;43.208;27.904;2023-06-14T04:30:38;17.07;;;13.90;;
11522;SDS011;70090;43.208;27.904;2023-06-14T04:33:05;16.90;;;14.10;;
11522;SDS011;70090;43.208;27.904;2023-06-14T04:35:32;13.77;;;11.83;;
11522;SDS011;70090;43.208;27.904;2023-06-14T04:38:01;14.63;;;11.60;;
11522;SDS011;70090;43.208;27.904;2023-06-14T04:40:29;16.87;;;12.63;;
11522;SDS011;70090;43.208;27.904;2023-06-14T04:42:56;16.10;;;12.20;;
11522;SDS011;70090;43.208;27.904;2023-06-14T04:45:23;14.77;;;12.30;;
11522;SDS011;70090;43.208;27.904;2023-06-14T04:47:59;14.83;;;11.40;;
11522;SDS011;70090;43.208;27.904;2023-06-14T04:50:26;13.57;;;12.20;;
11522;SDS011;70090;43.208;27.904;2023-06-14T04:52:54;15.63;;;12.37;;
11522;SDS011;70090;43.208;27.904;2023-06-14T04:55:22;13.17;;;11.70;;
11522;SDS011;70090;43.208;27.904;2023-06-14T04:57:49;14.90;;;11.67;;
11522;SDS011;70090;43.208;27.904;2023-06-14T05:00:18;13.03;;;10.93;;
11522;SDS011;70090;43.208;27.904;2023-06-14T05:02:46;12.57;;;10.30;;
11522;SDS011;70090;43.208;27.904;2023-06-14T05:05:17;16.10;;;10.07;;
11522;SDS011;70090;43.208;27.904;2023-06-14T05:07:44;12.30;;;10.23;;
11522;SDS011;70090;43.208;27.904;2023-06-14T05:10:11;13.70;;;10.57;;
11522;SDS011;70090;43.208;27.904;2023-06-14T05:12:38;10.20;;;9.30;;
11522;SDS011;70090;43.208;27.904;2023-06-14T05:15:06;12.57;;;10.20;;
11522;SDS011;70090;43.208;27.904;2023-06-14T05:17:34;12.13;;;9.73;;
11522;SDS011;70090;43.208;27.904;2023-06-14T05:20:02;10.73;;;9.70;;
11522;SDS011;70090;43.208;27.904;2023-06-14T05:22:31;11.70;;;9.57;;
11522;SDS011;70090;43.208;27.904;2023-06-14T05:24:58;10.57;;;8.70;;
11522;SDS011;70090;43.208;27.904;2023-06-14T05:27:25;11.13;;;8.63;;
11522;SDS011;70090;43.208;27.904;2023-06-14T05:29:52;14.17;;;10.00;;
11522;SDS011;70090;43.208;27.904;2023-06-14T05:32:21;12.73;;;10.93;;
11522;SDS011;70090;43.208;27.904;2023-06-14T05:34:47;14.30;;;12.73;;
11522;SDS011;70090;43.208;27.904;2023-06-14T05:37:15;14.73;;;12.03;;
11522;SDS011;70090;43.208;27.904;2023-06-14T05:39:43;15.43;;;11.47;;
11522;SDS011;70090;43.208;27.904;2023-06-14T05:42:10;13.47;;;12.10;;
11522;SDS011;70090;43.208;27.904;2023-06-14T05:44:37;14.23;;;11.83;;
11522;SDS011;70090;43.208;27.904;2023-06-14T05:47:04;14.57;;;12.07;;
11522;SDS011;70090;43.208;27.904;2023-06-14T05:49:31;14.67;;;11.47;;
11522;SDS011;70090;43.208;27.904;2023-06-14T05:51:58;12.97;;;11.10;;
11522;SDS011;70090;43.208;27.904;2023-06-14T05:54:25;13.30;;;9.80;;
11522;SDS011;70090;43.208;27.904;2023-06-14T05:56:53;10.77;;;9.53;;
11522;SDS011;70090;43.208;27.904;2023-06-14T05:59:20;12.37;;;9.37;;
11522;SDS011;70090;43.208;27.904;2023-06-14T06:01:47;11.70;;;9.80;;
11522;SDS011;70090;43.208;27.904;2023-06-14T06:04:14;11.00;;;9.90;;
11522;SDS011;70090;43.208;27.904;2023-06-14T06:06:40;11.27;;;9.43;;
11522;SDS011;70090;43.208;27.904;2023-06-14T06:09:07;12.83;;;9.90;;
11522;SDS011;70090;43.208;27.904;2023-06-14T06:11:34;13.27;;;9.90;;
11522;SDS011;70090;43.208;27.904;2023-06-14T06:14:02;10.97;;;9.87;;
11522;SDS011;70090;43.208;27.904;2023-06-14T06:16:29;13.60;;;10.57;;
11522;SDS011;70090;43.208;27.904;2023-06-14T06:18:56;14.07;;;9.97;;
11522;SDS011;70090;43.208;27.904;2023-06-14T06:21:23;13.67;;;10.33;;
11522;SDS011;70090;43.208;27.904;2023-06-14T06:23:50;12.90;;;10.50;;
11522;SDS011;70090;43.208;27.904;2023-06-14T06:26:17;10.80;;;9.67;;
11522;SDS011;70090;43.208;27.904;2023-06-14T06:28:44;13.40;;;9.80;;
11522;SDS011;70090;43.208;27.904;2023-06-14T06:31:12;14.47;;;10.10;;
11522;SDS011;70090;43.208;27.904;2023-06-14T06:33:39;12.40;;;10.10;;
11522;SDS011;70090;43.208;27.904;2023-06-14T06:36:06;15.73;;;10.00;;
11522;SDS011;70090;43.208;27.904;2023-06-14T06:38:33;12.00;;;9.67;;
11522;SDS011;70090;43.208;27.904;2023-06-14T06:41:00;14.37;;;10.30;;
11522;SDS011;70090;43.208;27.904;2023-06-14T06:43:27;12.20;;;10.53;;
11522;SDS011;70090;43.208;27.904;2023-06-14T06:45:53;12.17;;;9.70;;
11522;SDS011;70090;43.208;27.904;2023-06-14T06:48:22;11.27;;;9.97;;
11522;SDS011;70090;43.208;27.904;2023-06-14T06:50:48;11.30;;;10.07;;
11522;SDS011;70090;43.208;27.904;2023-06-14T06:53:16;13.03;;;9.13;;
11522;SDS011;70090;43.208;27.904;2023-06-14T06:55:43;8.90;;;8.00;;
11522;SDS011;70090;43.208;27.904;2023-06-14T06:58:11;8.47;;;7.30;;
11522;SDS011;70090;43.208;27.904;2023-06-14T07:00:38;11.40;;;7.07;;
11522;SDS011;70090;43.208;27.904;2023-06-14T07:03:06;5.30;;;3.87;;
11522;SDS011;70090;43.208;27.904;2023-06-14T07:05:35;4.80;;;4.03;;
11522;SDS011;70090;43.208;27.904;2023-06-14T07:08:02;5.93;;;4.80;;
11522;SDS011;70090;43.208;27.904;2023-06-14T07:10:29;6.00;;;5.30;;
11522;SDS011;70090;43.208;27.904;2023-06-14T07:12:56;5.50;;;4.30;;
11522;SDS011;70090;43.208;27.904;2023-06-14T07:15:23;8.83;;;5.23;;
11522;SDS011;70090;43.208;27.904;2023-06-14T07:17:50;5.90;;;3.80;;
11522;SDS011;70090;43.208;27.904;2023-06-14T07:20:18;9.33;;;6.80;;
11522;SDS011;70090;43.208;27.904;2023-06-14T07:22:49;5.60;;;3.90;;
11522;SDS011;70090;43.208;27.904;2023-06-14T07:25:15;9.40;;;4.70;;
11522;SDS011;70090;43.208;27.904;2023-06-14T07:27:45;5.77;;;4.17;;
11522;SDS011;70090;43.208;27.904;2023-06-14T07:30:12;5.63;;;4.70;;
11522;SDS011;70090;43.208;27.904;2023-06-14T07:32:39;7.90;;;5.83;;
11522;SDS011;70090;43.208;27.904;2023-06-14T07:35:07;4.93;;;3.90;;
11522;SDS011;70090;43.208;27.904;2023-06-14T07:37:34;6.83;;;5.30;;
11522;SDS011;70090;43.208;27.904;2023-06-14T07:40:03;3.83;;;3.43;;
11522;SDS011;70090;43.208;27.904;2023-06-14T07:42:32;6.87;;;4.17;;
11522;SDS011;70090;43.208;27.904;2023-06-14T07:45:00;5.30;;;4.47;;
11522;SDS011;70090;43.208;27.904;2023-06-14T07:47:26;6.40;;;3.67;;
11522;SDS011;70090;43.208;27.904;2023-06-14T07:49:53;7.37;;;4.03;;
11522;SDS011;70090;43.208;27.904;2023-06-14T07:52:20;3.90;;;3.50;;
11522;SDS011;70090;43.208;27.904;2023-06-14T07:54:47;4.03;;;3.30;;
11522;SDS011;70090;43.208;27.904;2023-06-14T07:57:15;5.17;;;4.07;;
11522;SDS011;70090;43.208;27.904;2023-06-14T07:59:45;8.37;;;4.03;;
11522;SDS011;70090;43.208;27.904;2023-06-14T08:02:12;3.60;;;3.30;;
11522;SDS011;70090;43.208;27.904;2023-06-14T08:04:38;5.97;;;3.57;;
11522;SDS011;70090;43.208;27.904;2023-06-14T08:07:05;3.73;;;3.03;;
11522;SDS011;70090;43.208;27.904;2023-06-14T08:09:32;5.17;;;3.93;;
11522;SDS011;70090;43.208;27.904;2023-06-14T08:11:59;4.43;;;3.60;;
11522;SDS011;70090;43.208;27.904;2023-06-14T08:14:27;8.67;;;4.37;;
11522;SDS011;70090;43.208;27.904;2023-06-14T08:16:56;5.23;;;3.70;;
11522;SDS011;70090;43.208;27.904;2023-06-14T08:19:23;4.37;;;3.50;;
11522;SDS011;70090;43.208;27.904;2023-06-14T08:21:50;4.70;;;3.30;;
11522;SDS011;70090;43.208;27.904;2023-06-14T08:24:20;3.70;;;3.40;;
11522;SDS011;70090;43.208;27.904;2023-06-14T08:26:49;4.33;;;3.50;;
11522;SDS011;70090;43.208;27.904;2023-06-14T08:29:16;4.47;;;3.60;;
11522;SDS011;70090;43.208;27.904;2023-06-14T08:31:45;4.40;;;4.00;;
11522;SDS011;70090;43.208;27.904;2023-06-14T08:34:11;4.40;;;3.40;;
11522;SDS011;70090;43.208;27.904;2023-06-14T08:36:38;4.97;;;3.23;;
11522;SDS011;70090;43.208;27.904;2023-06-14T08:39:06;4.10;;;3.77;;
11522;SDS011;70090;43.208;27.904;2023-06-14T08:41:34;4.20;;;3.80;;
11522;SDS011;70090;43.208;27.904;2023-06-14T08:44:02;3.97;;;3.50;;
11522;SDS011;70090;43.208;27.904;2023-06-14T08:46:29;5.60;;;3.70;;
11522;SDS011;70090;43.208;27.904;2023-06-14T08:49:00;4.60;;;4.00;;
11522;SDS011;70090;43.208;27.904;2023-06-14T08:51:28;4.80;;;3.97;;
11522;SDS011;70090;43.208;27.904;2023-06-14T08:53:59;5.10;;;3.83;;
11522;SDS011;70090;43.208;27.904;2023-06-14T08:56:27;4.93;;;3.93;;
11522;SDS011;70090;43.208;27.904;2023-06-14T08:58:55;10.57;;;6.23;;
11522;SDS011;70090;43.208;27.904;2023-06-14T09:01:22;6.30;;;4.73;;
11522;SDS011;70090;43.208;27.904;2023-06-14T09:03:50;5.87;;;4.30;;
11522;SDS011;70090;43.208;27.904;2023-06-14T09:06:18;6.33;;;5.30;;
11522;SDS011;70090;43.208;27.904;2023-06-14T09:08:48;10.07;;;5.73;;
11522;SDS011;70090;43.208;27.904;2023-06-14T09:11:16;8.23;;;5.27;;
11522;SDS011;70090;43.208;27.904;2023-06-14T09:13:44;7.63;;;5.80;;
11522;SDS011;70090;43.208;27.904;2023-06-14T09:16:12;8.70;;;5.60;;
11522;SDS011;70090;43.208;27.904;2023-06-14T09:18:40;5.00;;;4.50;;
11522;SDS011;70090;43.208;27.904;2023-06-14T09:21:09;7.27;;;5.13;;
11522;SDS011;70090;43.208;27.904;2023-06-14T09:23:39;7.77;;;4.90;;
11522;SDS011;70090;43.208;27.904;2023-06-14T09:26:06;6.63;;;4.60;;
11522;SDS011;70090;43.208;27.904;2023-06-14T09:28:34;5.63;;;5.03;;
11522;SDS011;70090;43.208;27.904;2023-06-14T09:31:01;6.23;;;5.17;;
11522;SDS011;70090;43.208;27.904;2023-06-14T09:33:28;5.53;;;4.63;;
11522;SDS011;70090;43.208;27.904;2023-06-14T09:35:55;9.27;;;4.87;;
11522;SDS011;70090;43.208;27.904;2023-06-14T09:38:22;6.00;;;4.87;;
11522;SDS011;70090;43.208;27.904;2023-06-14T09:40:52;6.57;;;5.20;;
11522;SDS011;70090;43.208;27.904;2023-06-14T09:43:22;5.47;;;4.40;;
11522;SDS011;70090;43.208;27.904;2023-06-14T09:45:51;5.97;;;4.23;;
11522;SDS011;70090;43.208;27.904;2023-06-14T09:48:18;5.40;;;4.70;;
11522;SDS011;70090;43.208;27.904;2023-06-14T09:50:45;5.87;;;4.30;;
11522;SDS011;70090;43.208;27.904;2023-06-14T09:53:13;5.23;;;4.43;;
11522;SDS011;70090;43.208;27.904;2023-06-14T09:55:41;4.20;;;3.80;;
11522;SDS011;70090;43.208;27.904;2023-06-14T09:58:10;5.20;;;4.00;;
11522;SDS011;70090;43.208;27.904;2023-06-14T10:00:40;5.57;;;3.87;;
11522;SDS011;70090;43.208;27.904;2023-06-14T10:03:12;5.57;;;4.07;;
11522;SDS011;70090;43.208;27.904;2023-06-14T10:05:41;5.97;;;4.33;;
11522;SDS011;70090;43.208;27.904;2023-06-14T10:08:10;4.10;;;3.80;;
11522;SDS011;70090;43.208;27.904;2023-06-14T10:10:41;6.30;;;3.60;;
11522;SDS011;70090;43.208;27.904;2023-06-14T10:13:10;6.80;;;4.50;;
11522;SDS011;70090;43.208;27.904;2023-06-14T10:15:39;5.73;;;4.17;;
11522;SDS011;70090;43.208;27.904;2023-06-14T10:18:14;8.07;;;4.63;;
11522;SDS011;70090;43.208;27.904;2023-06-14T10:20:49;5.50;;;4.03;;
11522;SDS011;70090;43.208;27.904;2023-06-14T10:23:21;4.40;;;4.00;;
11522;SDS011;70090;43.208;27.904;2023-06-14T10:25:50;6.10;;;4.60;;
11522;SDS011;70090;43.208;27.904;2023-06-14T10:28:23;5.23;;;4.53;;
11522;SDS011;70090;43.208;27.904;2023-06-14T10:31:07;5.13;;;4.00;;
11522;SDS011;70090;43.208;27.904;2023-06-14T10:33:35;9.20;;;5.00;;
11522;SDS011;70090;43.208;27.904;2023-06-14T10:36:09;6.13;;;4.87;;
11522;SDS011;70090;43.208;27.904;2023-06-14T10:38:56;4.30;;;3.90;;
11522;SDS011;70090;43.208;27.904;2023-06-14T10:41:24;4.93;;;4.43;;
11522;SDS011;70090;43.208;27.904;2023-06-14T10:44:07;4.73;;;4.10;;
11522;SDS011;70090;43.208;27.904;2023-06-14T10:46:58;6.80;;;4.40;;
11522;SDS011;70090;43.208;27.904;2023-06-14T10:49:36;4.20;;;3.80;;
11522;SDS011;70090;43.208;27.904;2023-06-14T10:52:07;4.40;;;4.00;;
11522;SDS011;70090;43.208;27.904;2023-06-14T10:57:29;4.37;;;3.97;;
11522;SDS011;70090;43.208;27.904;2023-06-14T10:59:58;5.00;;;4.40;;
11522;SDS011;70090;43.208;27.904;2023-06-14T11:02:46;4.97;;;4.17;;
11522;SDS011;70090;43.208;27.904;2023-06-14T11:05:28;5.03;;;3.77;;
11522;SDS011;70090;43.208;27.904;2023-06-14T11:07:58;7.83;;;4.37;;
11522;SDS011;70090;43.208;27.904;2023-06-14T11:10:38;9.97;;;6.10;;
11522;SDS011;70090;43.208;27.904;2023-06-14T11:13:06;5.80;;;4.53;;
11522;SDS011;70090;43.208;27.904;2023-06-14T11:15:35;4.80;;;4.20;;
11522;SDS011;70090;43.208;27.904;2023-06-14T11:18:04;6.10;;;4.20;;
11522;SDS011;70090;43.208;27.904;2023-06-14T11:20:33;4.70;;;4.20;;
11522;SDS011;70090;43.208;27.904;2023-06-14T11:23:01;5.00;;;4.50;;
11522;SDS011;70090;43.208;27.904;2023-06-14T11:25:29;4.47;;;4.07;;
11522;SDS011;70090;43.208;27.904;2023-06-14T11:27:56;7.10;;;4.37;;
11522;SDS011;70090;43.208;27.904;2023-06-14T11:30:24;5.57;;;4.27;;
11522;SDS011;70090;43.208;27.904;2023-06-14T11:32:53;5.10;;;4.60;;
11522;SDS011;70090;43.208;27.904;2023-06-14T11:35:21;5.40;;;4.43;;
11522;SDS011;70090;43.208;27.904;2023-06-14T11:37:52;5.47;;;4.50;;
11522;SDS011;70090;43.208;27.904;2023-06-14T11:40:20;6.33;;;4.37;;
11522;SDS011;70090;43.208;27.904;2023-06-14T11:42:54;6.90;;;4.70;;
11522;SDS011;70090;43.208;27.904;2023-06-14T11:45:24;5.00;;;4.50;;
11522;SDS011;70090;43.208;27.904;2023-06-14T11:47:53;5.93;;;4.63;;
11522;SDS011;70090;43.208;27.904;2023-06-14T11:50:21;5.00;;;4.40;;
11522;SDS011;70090;43.208;27.904;2023-06-14T11:52:51;6.57;;;4.60;;
11522;SDS011;70090;43.208;27.904;2023-06-14T11:55:19;5.10;;;4.60;;
11522;SDS011;70090;43.208;27.904;2023-06-14T11:57:46;5.60;;;4.27;;
11522;SDS011;70090;43.208;27.904;2023-06-14T12:00:13;4.90;;;4.50;;
11522;SDS011;70090;43.208;27.904;2023-06-14T12:02:42;7.10;;;4.70;;
11522;SDS011;70090;43.208;27.904;2023-06-14T12:05:20;6.73;;;5.20;;
11522;SDS011;70090;43.208;27.904;2023-06-14T12:07:47;4.80;;;4.40;;
11522;SDS011;70090;43.208;27.904;2023-06-14T12:10:13;5.00;;;4.50;;
11522;SDS011;70090;43.208;27.904;2023-06-14T12:12:41;5.53;;;4.90;;
11522;SDS011;70090;43.208;27.904;2023-06-14T12:15:08;5.67;;;4.80;;
11522;SDS011;70090;43.208;27.904;2023-06-14T12:17:37;7.20;;;4.60;;
11522;SDS011;70090;43.208;27.904;2023-06-14T12:20:07;6.00;;;4.90;;
11522;SDS011;70090;43.208;27.904;2023-06-14T12:22:40;4.83;;;4.43;;
11522;SDS011;70090;43.208;27.904;2023-06-14T12:25:23;6.77;;;4.90;;
11522;SDS011;70090;43.208;27.904;2023-06-14T12:27:53;6.40;;;5.80;;
11522;SDS011;70090;43.208;27.904;2023-06-14T12:30:20;7.20;;;6.50;;
11522;SDS011;70090;43.208;27.904;2023-06-14T12:32:47;9.87;;;8.50;;
11522;SDS011;70090;43.208;27.904;2023-06-14T12:35:16;9.57;;;8.40;;
11522;SDS011;70090;43.208;27.904;2023-06-14T12:37:44;11.63;;;8.00;;
11522;SDS011;70090;43.208;27.904;2023-06-14T12:40:12;8.70;;;7.63;;
11522;SDS011;70090;43.208;27.904;2023-06-14T12:42:39;8.67;;;7.83;;
11522;SDS011;70090;43.208;27.904;2023-06-14T12:45:06;11.27;;;8.30;;
11522;SDS011;70090;43.208;27.904;2023-06-14T12:47:34;8.53;;;7.63;;
11522;SDS011;70090;43.208;27.904;2023-06-14T12:50:01;8.40;;;7.70;;
11522;SDS011;70090;43.208;27.904;2023-06-14T12:52:28;10.23;;;7.97;;
11522;SDS011;70090;43.208;27.904;2023-06-14T12:54:56;8.73;;;7.83;;
11522;SDS011;70090;43.208;27.904;2023-06-14T12:57:23;10.50;;;9.00;;
11522;SDS011;70090;43.208;27.904;2023-06-14T12:59:50;9.50;;;8.47;;
11522;SDS011;70090;43.208;27.904;2023-06-14T13:02:18;10.07;;;8.67;;
11522;SDS011;70090;43.208;27.904;2023-06-14T13:04:47;9.80;;;8.80;;
11522;SDS011;70090;43.208;27.904;2023-06-14T13:07:14;10.57;;;8.60;;
11522;SDS011;70090;43.208;27.904;2023-06-14T13:09:41;10.80;;;9.67;;
11522;SDS011;70090;43.208;27.904;2023-06-14T13:12:12;9.83;;;8.80;;
11522;SDS011;70090;43.208;27.904;2023-06-14T13:14:39;11.60;;;10.03;;
11522;SDS011;70090;43.208;27.904;2023-06-14T13:17:07;10.63;;;9.27;;
11522;SDS011;70090;43.208;27.904;2023-06-14T13:19:35;10.83;;;9.83;;
11522;SDS011;70090;43.208;27.904;2023-06-14T13:22:03;11.53;;;8.87;;
11522;SDS011;70090;43.208;27.904;2023-06-14T13:24:30;10.60;;;9.57;;
11522;SDS011;70090;43.208;27.904;2023-06-14T13:26:57;11.07;;;9.47;;
11522;SDS011;70090;43.208;27.904;2023-06-14T13:29:25;9.43;;;8.53;;
11522;SDS011;70090;43.208;27.904;2023-06-14T13:31:53;10.53;;;8.33;;
11522;SDS011;70090;43.208;27.904;2023-06-14T13:34:20;10.53;;;8.17;;
11522;SDS011;70090;43.208;27.904;2023-06-14T13:36:48;9.43;;;8.40;;
11522;SDS011;70090;43.208;27.904;2023-06-14T13:39:15;8.27;;;7.47;;
11522;SDS011;70090;43.208;27.904;2023-06-14T13:41:42;10.90;;;7.73;;
11522;SDS011;70090;43.208;27.904;2023-06-14T13:44:09;8.13;;;7.43;;
11522;SDS011;70090;43.208;27.904;2023-06-14T13:46:40;8.00;;;7.20;;
11522;SDS011;70090;43.208;27.904;2023-06-14T13:49:08;8.00;;;7.13;;
11522;SDS011;70090;43.208;27.904;2023-06-14T13:51:35;8.10;;;7.30;;
11522;SDS011;70090;43.208;27.904;2023-06-14T13:54:02;8.20;;;7.40;;
11522;SDS011;70090;43.208;27.904;2023-06-14T13:56:29;10.47;;;8.07;;
11522;SDS011;70090;43.208;27.904;2023-06-14T13:58:56;8.83;;;7.93;;
11522;SDS011;70090;43.208;27.904;2023-06-14T14:01:23;8.53;;;7.50;;
11522;SDS011;70090;43.208;27.904;2023-06-14T14:03:52;8.80;;;7.90;;
11522;SDS011;70090;43.208;27.904;2023-06-14T14:06:19;9.93;;;7.30;;
11522;SDS011;70090;43.208;27.904;2023-06-14T14:08:45;7.70;;;7.00;;
11522;SDS011;70090;43.208;27.904;2023-06-14T14:11:14;8.60;;;7.70;;
11522;SDS011;70090;43.208;27.904;2023-06-14T14:13:41;8.10;;;7.30;;
11522;SDS011;70090;43.208;27.904;2023-06-14T14:16:08;9.27;;;8.37;;
11522;SDS011;70090;43.208;27.904;2023-06-14T14:18:35;12.17;;;9.77;;
11522;SDS011;70090;43.208;27.904;2023-06-14T14:21:04;10.47;;;9.30;;
11522;SDS011;70090;43.208;27.904;2023-06-14T14:23:31;10.43;;;9.30;;
11522;SDS011;70090;43.208;27.904;2023-06-14T14:25:58;10.40;;;9.40;;
11522;SDS011;70090;43.208;27.904;2023-06-14T14:28:26;10.83;;;9.70;;
11522;SDS011;70090;43.208;27.904;2023-06-14T14:30:53;10.50;;;9.40;;
11522;SDS011;70090;43.208;27.904;2023-06-14T14:33:20;13.23;;;9.83;;
11522;SDS011;70090;43.208;27.904;2023-06-14T14:35:47;10.63;;;9.63;;
11522;SDS011;70090;43.208;27.904;2023-06-14T14:38:15;9.83;;;8.83;;
11522;SDS011;70090;43.208;27.904;2023-06-14T14:40:42;9.63;;;8.63;;